TimeCST,TemperatureF,Dew PointF,Humidity,Sea Level PressureIn,VisibilityMPH,Wind Direction,Wind SpeedMPH,Gust SpeedMPH,PrecipitationIn,Events,Conditions,WindDirDegrees,DateUTC
12:15 AM,21.2,14.5,75,29.78,10.0,West,12.7,-,N/A,,Mostly Cloudy,270,2014-02-08 06:15:00
12:35 AM,25.2,18.5,76,29.78,10.0,West,13.8,-,N/A,,Overcast,280,2014-02-08 06:35:00
12:55 AM,25.3,19.4,78,29.78,10.0,West,11.5,-,N/A,,Overcast,280,2014-02-08 06:55:00
1:15 AM,26.2,20.3,78,29.79,10.0,WNW,12.7,-,N/A,,Overcast,290,2014-02-08 07:15:00
1:35 AM,27.1,20.5,76,29.79,10.0,WNW,12.7,-,N/A,,Overcast,290,2014-02-08 07:35:00
1:55 AM,27.5,21.0,77,29.79,10.0,WNW,10.4,-,N/A,,Overcast,300,2014-02-08 07:55:00
2:15 AM,28.2,21.2,75,29.79,10.0,WNW,11.5,-,N/A,,Overcast,300,2014-02-08 08:15:00
2:35 AM,26.2,20.3,78,29.79,10.0,WNW,10.4,-,N/A,,Overcast,300,2014-02-08 08:35:00
2:55 AM,23.5,18.1,80,29.79,10.0,WNW,10.4,-,N/A,,Scattered Clouds,300,2014-02-08 08:55:00
3:15 AM,23.4,18.5,82,29.79,10.0,WNW,9.2,-,N/A,,Clear,300,2014-02-08 09:15:00
3:35 AM,24.6,19.2,80,29.79,10.0,NW,8.1,-,N/A,,Clear,320,2014-02-08 09:35:00
3:55 AM,20.7,15.8,81,29.79,10.0,NNW,5.8,-,N/A,,Clear,330,2014-02-08 09:55:00
4:15 AM,22.1,14.4,72,29.79,10.0,North,9.2,-,N/A,,Clear,350,2014-02-08 10:15:00
4:35 AM,20.7,12.6,71,29.79,10.0,North,4.6,-,N/A,,Clear,360,2014-02-08 10:35:00
4:55 AM,18.9,11.1,72,29.77,10.0,North,5.8,-,N/A,,Clear,10,2014-02-08 10:55:00
5:15 AM,18.7,11.1,72,29.79,10.0,Calm,Calm,-,N/A,,Clear,0,2014-02-08 11:15:00
5:35 AM,16.0,10.0,77,29.79,10.0,Calm,Calm,-,N/A,,Clear,0,2014-02-08 11:35:00
5:55 AM,15.3,10.4,81,29.78,10.0,Calm,Calm,-,N/A,,Clear,0,2014-02-08 11:55:00
6:15 AM,11.1,5.9,80,29.78,10.0,Calm,Calm,-,N/A,,Clear,0,2014-02-08 12:15:00
6:35 AM,12.0,7.2,81,29.78,10.0,Calm,Calm,-,N/A,,Scattered Clouds,0,2014-02-08 12:35:00
6:55 AM,10.2,6.3,84,29.78,10.0,South,3.5,-,N/A,,Scattered Clouds,170,2014-02-08 12:55:00
7:15 AM,8.6,3.6,80,29.78,10.0,Calm,Calm,-,N/A,,Clear,0,2014-02-08 13:15:00
7:35 AM,10.2,6.8,86,29.78,10.0,Calm,Calm,-,N/A,,Clear,0,2014-02-08 13:35:00
7:55 AM,8.2,4.6,85,29.78,10.0,Calm,Calm,-,N/A,,Scattered Clouds,0,2014-02-08 13:55:00
8:15 AM,9.5,4.5,80,29.79,10.0,Calm,Calm,-,N/A,,Mostly Cloudy,0,2014-02-08 14:15:00
8:35 AM,13.3,8.6,82,29.80,10.0,WSW,3.5,-,N/A,,Overcast,250,2014-02-08 14:35:00
8:55 AM,15.8,10.6,80,29.79,10.0,Calm,Calm,-,N/A,,Overcast,0,2014-02-08 14:55:00
9:15 AM,16.7,11.1,79,29.79,10.0,SSW,6.9,-,N/A,,Overcast,210,2014-02-08 15:15:00
9:35 AM,18.3,12.7,79,29.80,10.0,SSW,4.6,-,N/A,,Overcast,200,2014-02-08 15:35:00
9:55 AM,20.1,14.2,78,29.81,10.0,SSW,3.5,-,N/A,,Overcast,210,2014-02-08 15:55:00
10:15 AM,23.4,15.4,72,29.80,10.0,South,6.9,-,N/A,,Overcast,190,2014-02-08 16:15:00
10:30 AM,24.4,15.6,69,29.81,10.0,South,9.2,-,N/A,,Overcast,180,2014-02-08 16:30:00
10:55 AM,25.9,16.9,69,29.81,10.0,SSW,9.2,-,N/A,,Overcast,200,2014-02-08 16:55:00
11:15 AM,28.0,15.6,60,29.81,10.0,South,13.8,-,N/A,,Overcast,180,2014-02-08 17:15:00
11:35 AM,27.9,16.3,62,29.79,10.0,South,13.8,-,N/A,,Mostly Cloudy,170,2014-02-08 17:35:00
11:55 AM,28.6,16.9,62,29.79,10.0,South,12.7,-,N/A,,Scattered Clouds,180,2014-02-08 17:55:00
12:15 PM,28.9,15.8,58,29.78,10.0,South,12.7,-,N/A,,Overcast,180,2014-02-08 18:15:00
12:35 PM,29.5,15.8,57,29.79,10.0,South,15.0,-,N/A,,Overcast,180,2014-02-08 18:35:00
12:55 PM,30.2,16.0,56,29.77,10.0,South,13.8,-,N/A,,Overcast,180,2014-02-08 18:55:00
1:15 PM,30.2,16.5,57,29.77,10.0,South,18.4,21.9,N/A,,Mostly Cloudy,180,2014-02-08 19:15:00
1:35 PM,30.9,16.7,56,29.76,10.0,South,18.4,24.2,N/A,,Scattered Clouds,190,2014-02-08 19:35:00
1:55 PM,31.6,18.3,58,29.75,10.0,South,17.3,-,N/A,,Clear,190,2014-02-08 19:55:00
2:15 PM,31.3,19.9,63,29.75,10.0,SSW,13.8,-,N/A,,Clear,200,2014-02-08 20:15:00
2:35 PM,32.2,21.0,63,29.75,10.0,SSW,11.5,-,N/A,,Clear,210,2014-02-08 20:35:00
2:55 PM,32.0,20.8,63,29.75,10.0,South,9.2,-,N/A,,Clear,190,2014-02-08 20:55:00
3:15 PM,32.0,21.9,66,29.74,10.0,South,6.9,-,N/A,,Clear,180,2014-02-08 21:15:00
3:35 PM,32.0,23.0,69,29.74,10.0,South,9.2,-,N/A,,Clear,180,2014-02-08 21:35:00
3:55 PM,32.2,23.5,70,29.74,10.0,South,6.9,-,N/A,,Clear,180,2014-02-08 21:55:00
4:15 PM,32.4,23.7,70,29.74,10.0,South,9.2,-,N/A,,Clear,170,2014-02-08 22:15:00
4:35 PM,32.2,23.9,72,29.75,10.0,SW,5.8,-,N/A,,Clear,220,2014-02-08 22:35:00
4:55 PM,35.2,25.9,69,29.76,10.0,West,6.9,-,N/A,,Scattered Clouds,260,2014-02-08 22:55:00
5:15 PM,35.6,25.7,67,29.77,10.0,NW,9.2,-,N/A,,Scattered Clouds,310,2014-02-08 23:15:00
5:35 PM,35.2,25.2,67,29.78,10.0,NW,9.2,-,N/A,,Clear,320,2014-02-08 23:35:00
5:55 PM,31.5,24.1,74,29.79,10.0,NNW,4.6,-,N/A,,Scattered Clouds,330,2014-02-08 23:55:00
6:15 PM,28.9,23.4,80,29.81,10.0,NNW,4.6,-,N/A,,Mostly Cloudy,330,2014-02-09 00:15:00
6:35 PM,27.5,21.7,79,29.83,10.0,NE,11.5,-,N/A,,Mostly Cloudy,40,2014-02-09 00:35:00
6:55 PM,22.3,18.7,86,29.85,10.0,NE,13.8,-,N/A,,Scattered Clouds,50,2014-02-09 00:55:00
7:15 PM,20.3,17.6,89,29.86,10.0,NE,15.0,-,N/A,,Scattered Clouds,50,2014-02-09 01:15:00
7:35 PM,19.9,17.6,91,29.89,7.0,NE,16.1,-,N/A,,Mostly Cloudy,50,2014-02-09 01:35:00
7:55 PM,20.1,17.4,89,29.91,7.0,NE,17.3,-,N/A,,Overcast,50,2014-02-09 01:55:00
7:57 PM,19.4,17.6,93,29.91,7.0,NE,18.4,-,N/A,,Overcast,50,2014-02-09 01:57:00
8:15 PM,20.1,17.2,89,29.94,7.0,NE,16.1,-,N/A,,Overcast,40,2014-02-09 02:15:00
8:35 PM,20.3,16.9,87,29.96,10.0,NE,16.1,-,N/A,,Overcast,40,2014-02-09 02:35:00
8:55 PM,20.3,16.7,86,29.98,10.0,NE,12.7,-,N/A,,Overcast,50,2014-02-09 02:55:00
9:15 PM,20.3,16.9,87,29.98,10.0,NE,11.5,-,N/A,,Overcast,50,2014-02-09 03:15:00
9:35 PM,20.3,16.9,87,29.99,10.0,NE,10.4,-,N/A,,Overcast,50,2014-02-09 03:35:00
9:55 PM,20.5,17.4,88,29.99,10.0,NE,10.4,-,N/A,,Overcast,50,2014-02-09 03:55:00
10:15 PM,19.4,16.0,87,30.01,7.0,NE,16.1,19.6,N/A,,Overcast,50,2014-02-09 04:15:00
10:35 PM,18.0,14.9,88,30.01,7.0,NE,12.7,-,N/A,,Overcast,50,2014-02-09 04:35:00
10:55 PM,17.4,14.4,88,30.02,10.0,NE,12.7,-,N/A,,Overcast,40,2014-02-09 04:55:00
11:15 PM,16.2,13.1,88,30.02,10.0,NE,13.8,-,N/A,,Overcast,50,2014-02-09 05:15:00
11:35 PM,14.9,11.7,87,30.02,10.0,NE,13.8,-,N/A,,Overcast,40,2014-02-09 05:35:00
11:55 PM,13.8,10.4,86,30.01,10.0,NE,11.5,-,N/A,,Overcast,50,2014-02-09 05:55:00